• Join FlightAware (Why Join?)
  • Login
  • US Flag 
Rudolph Flight #1: Arrived! 
10:51PM EST


 

Airport Tracker/Info


-or-


 

Live Flight TrackerFlight Track Log ✈ AAL2460 ✈ 09-Jul-2013 ✈ KLAX - KDFW

Flight Track Log - Related Links

Times and Time Zones

All times are in EDT time to prevent confusion due to time zone crossing. See the AAL2460 flight status page for this flight to view local times or setup timezone preferences in your user account.

Time Position Orientation Groundspeed Altitude Reporting Facility
EDT Latitude Longitude Course Direction KTS MPH feet Rate Location/Type
07:43PM 33.9314 -118.4575 97° East 215 247 1,900  Level Los Angeles Center
07:44PM 33.8867 -118.5308 234° Southwest 253 291 4,800 2,340 Climbing Los Angeles Center
07:45PM 33.7699 -118.0564 121° Southeast  Level FlightAware Approximate
07:45PM 33.8233 -118.5414 188° South 278 320 6,700  Level Los Angeles Center
07:46PM 33.7667 -117.9197 90° East  Level FlightAware Approximate
07:46PM 33.7283 -118.5256 172° South 291 335 9,600  Level Los Angeles Center
07:47PM 33.7544 -117.7842 107° East  Level FlightAware Approximate
07:47PM 33.6419 -118.5089 171° South 327 376 11,200  Level Los Angeles Center
07:48PM 33.7382 -117.6481 97° East  Level FlightAware Approximate
07:48PM 33.6017 -118.4172 118° Southeast 352 405 13,700  Level Los Angeles Center
07:49PM 33.6044 -118.2986 88° East 362 417 15,200 1,800 Climbing Los Angeles Center
07:50PM 33.6072 -118.1442 89° East 392 451 17,500 1,980 Climbing Los Angeles Center
07:51PM 33.6097 -118.0108 89° East 403 464 19,300 1,560 Climbing Los Angeles Center
07:52PM 33.6117 -117.8739 89° East 411 473 20,700 1,380 Climbing Los Angeles Center
07:53PM 33.6144 -117.7328 89° East 422 486 22,200 1,440 Climbing Los Angeles Center
07:54PM 33.6164 -117.5878 89° East 435 501 23,700 1,380 Climbing Los Angeles Center
07:55PM 33.6183 -117.4403 89° East 441 507 25,100 1,500 Climbing Los Angeles Center
07:56PM 33.6203 -117.2603 89° East 451 519 26,800 1,440 Climbing Los Angeles Center
07:57PM 33.6192 -117.1089 90° East 455 524 28,100 1,260 Climbing Los Angeles Center
07:58PM 33.6036 -116.9536 97° East 466 536 29,500 1,200 Climbing Los Angeles Center
07:59PM 33.5850 -116.7969 98° East 475 547 30,700 1,380 Climbing Los Angeles Center
08:00PM 33.5692 -116.6336 97° East 484 557 32,400 1,740 Climbing Los Angeles Center
08:01PM 33.5542 -116.4753 96° East 482 555 34,400 1,200 Climbing Los Angeles Center
08:02PM 33.5325 -116.2883 98° East 474 545 35,000 600 Climbing Los Angeles Center
08:03PM 33.5156 -116.1350 98° East 466 536 35,700 900 Climbing Los Angeles Center
08:04PM 33.4972 -115.9817 98° East 464 534 36,900 600 Climbing Los Angeles Center
08:05PM 33.4783 -115.8264 98° East 471 542 37,000  Climbing Los Angeles Center
08:07PM 33.4589 -115.6706 98° East 472 543 37,000  Level Los Angeles Center
08:08PM 33.4408 -115.5175 98° East 463 533 37,000  Level Los Angeles Center
08:09PM 33.4214 -115.3658 99° East 461 531 37,000  Level Los Angeles Center
08:10PM 33.3989 -115.1836 98° East 461 531 37,000  Level Los Angeles Center
08:11PM 33.3814 -115.0339 98° East 457 526 37,000  Level Los Angeles Center
08:12PM 33.3625 -114.8822 98° East 462 532 37,000  Level Los Angeles Center
08:13PM 33.3447 -114.7325 98° East 457 526 37,000  Level Los Angeles Center
08:14PM 33.3244 -114.5825 99° East 456 525 37,000  Level Los Angeles Center
08:15PM 33.3042 -114.4339 99° East 454 522 37,000  Level Los Angeles Center
08:15PM 33.2917 -114.3225 98° East 457 526 37,000  Level Albuquerque Center
08:16PM 33.2722 -114.1733 99° East 456 525 37,000  Level Albuquerque Center
08:17PM 33.2517 -114.0242 99° East 455 524 37,000  Level Albuquerque Center
08:18PM 33.2311 -113.8733 99° East 458 527 37,000  Level Albuquerque Center
08:19PM 33.2094 -113.7217 100° East 462 532 37,000  Level Albuquerque Center
08:21PM 33.1881 -113.5692 99° East 465 535 37,000  Level Albuquerque Center
08:22PM 33.1656 -113.4158 100° East 466 536 37,000  Level Albuquerque Center
08:23PM 33.1394 -113.2314 100° East 469 540 37,000  Level Albuquerque Center
08:24PM 33.1164 -113.0797 100° East 465 535 37,000  Level Albuquerque Center
08:25PM 33.0939 -112.9283 100° East 464 534 37,000  Level Albuquerque Center
08:26PM 33.0722 -112.7778 100° East 461 531 37,000  Level Albuquerque Center
08:27PM 33.0494 -112.6269 100° East 460 529 37,000  Level Albuquerque Center
08:28PM 33.0269 -112.4786 100° East 455 524 37,000  Level Albuquerque Center
08:29PM 33.0031 -112.3286 101° East 459 528 37,000  Level Albuquerque Center
08:30PM 32.9806 -112.1781 100° East 457 526 37,000  Level Albuquerque Center
08:31PM 32.9578 -112.0303 100° East 456 525 37,000  Level Albuquerque Center
08:32PM 32.9272 -111.8542 102° East 458 527 37,000  Level Albuquerque Center
08:33PM 32.8922 -111.7108 106° East 455 524 37,000  Level Albuquerque Center
08:34PM 32.8586 -111.5669 106° East 455 524 37,000  Level Albuquerque Center
08:35PM 32.8256 -111.4225 105° East 455 524 37,000  Level Albuquerque Center
08:36PM 32.7922 -111.2761 105° East 459 528 37,000  Level Albuquerque Center
08:37PM 32.7575 -111.1333 106° East 456 525 37,000  Level Albuquerque Center
08:38PM 32.7219 -110.9900 106° East 456 525 37,000  Level Albuquerque Center
08:39PM 32.6792 -110.8175 106° East 456 525 37,000  Level Albuquerque Center
08:40PM 32.6361 -110.6806 110° East 449 517 37,000  Level Albuquerque Center
08:41PM 32.5942 -110.5414 110° East 450 518 37,000  Level Albuquerque Center
08:42PM 32.5525 -110.4025 110° East 449 517 37,000  Level Albuquerque Center
08:43PM 32.5086 -110.2653 111° Southeast 447 514 37,000  Level Albuquerque Center
08:44PM 32.4675 -110.1261 109° East 448 516 37,000  Level Albuquerque Center
08:45PM 32.4297 -109.9881 108° East 445 512 37,000  Level Albuquerque Center
08:46PM 32.3897 -109.8456 108° East 443 510 37,000  Level Albuquerque Center
08:47PM 32.3439 -109.6819 108° East 438 504 37,000  Level Albuquerque Center
08:48PM 32.3036 -109.5467 109° East 438 504 37,000  Level Albuquerque Center
08:49PM 32.2592 -109.4119 111° Southeast 440 506 37,000  Level Albuquerque Center
08:50PM 32.2144 -109.2767 111° Southeast 442 509 37,000  Level Albuquerque Center
08:51PM 32.1689 -109.1397 111° Southeast 448 516 37,000  Level Albuquerque Center
08:52PM 32.1253 -109.0031 111° Southeast 447 514 37,000  Level Albuquerque Center
08:53PM 32.1067 -108.8603 99° East 445 512 37,000  Level Albuquerque Center
08:54PM 32.0978 -108.7164 94° East 442 509 37,000  Level Albuquerque Center
08:55PM 32.0881 -108.5447 94° East 440 506 37,000  Level Albuquerque Center
08:56PM 32.0817 -108.4011 93° East 439 505 37,000  Level Albuquerque Center
08:57PM 32.0728 -108.2569 94° East 442 509 37,000  Level Albuquerque Center
08:59PM 32.0658 -108.1128 93° East 442 509 37,000  Level Albuquerque Center
09:00PM 32.0575 -107.9681 94° East 443 510 37,000  Level Albuquerque Center
09:01PM 32.0489 -107.8225 94° East 446 513 37,000  Level Albuquerque Center
09:02PM 32.0417 -107.6783 93° East 445 512 37,000  Level Albuquerque Center
09:03PM 32.0317 -107.5044 94° East 446 513 37,000  Level Albuquerque Center
09:04PM 32.0228 -107.3614 94° East 443 510 37,000  Level Albuquerque Center
09:05PM 32.0150 -107.2181 94° East 443 510 37,000  Level Albuquerque Center
09:06PM 32.0067 -107.0750 94° East 442 509 37,000  Level Albuquerque Center
09:07PM 31.9986 -106.9328 94° East 441 507 37,000  Level Albuquerque Center
09:08PM 31.9903 -106.7919 94° East 435 501 37,000  Level Albuquerque Center
09:09PM 31.9803 -106.6503 95° East 437 503 37,000  Level Albuquerque Center
09:10PM 31.9694 -106.4800 94° East 438 504 37,000  Level Albuquerque Center
09:11PM 31.9606 -106.3369 94° East 441 507 37,000  Level Albuquerque Center
09:12PM 31.9531 -106.1922 93° East 445 512 37,000  Level Albuquerque Center
09:13PM 31.9508 -106.0492 91° East 438 504 37,000  Level Albuquerque Center
09:14PM 31.9472 -105.9086 92° East 439 505 37,000  Level Albuquerque Center
09:15PM 31.9442 -105.7636 91° East 441 507 37,000  Level Albuquerque Center
09:16PM 31.9411 -105.6186 91° East 442 509 37,000  Level Albuquerque Center
09:17PM 31.9369 -105.4447 92° East 443 510 37,000  Level Albuquerque Center
09:18PM 31.9333 -105.2989 92° East 445 512 37,000  Level Albuquerque Center
09:19PM 31.9311 -105.1533 91° East 445 512 37,000  Level Albuquerque Center
09:20PM 31.9278 -105.0078 92° East 444 511 37,000  Level Albuquerque Center
09:21PM 31.9233 -104.8625 92° East 444 511 37,000  Level Albuquerque Center
09:22PM 31.9194 -104.7175 92° East 443 510 37,000  Level Albuquerque Center
09:23PM 31.9136 -104.5747 93° East 439 505 37,000  Level Albuquerque Center
09:24PM 31.9089 -104.4314 92° East 438 504 37,000  Level Albuquerque Center
09:25PM 31.9033 -104.2867 93° East 441 507 37,000  Level Albuquerque Center
09:26PM 31.9000 -104.1444 92° East 437 503 37,000  Level Albuquerque Center
09:27PM 31.8956 -103.9928 92° East 437 503 37,000  Level Albuquerque Center
09:28PM 31.8900 -103.8503 93° East 438 504 37,000  Level Albuquerque Center
09:29PM 31.8853 -103.6797 92° East 437 503 37,000  Level Albuquerque Center
09:30PM 31.8800 -103.5378 92° East 436 502 37,000  Level Albuquerque Center
09:31PM 31.8736 -103.3936 93° East 440 506 37,000  Level Albuquerque Center
09:32PM 31.8722 -103.2531 91° East 437 503 37,000  Level Albuquerque Center
09:33PM 31.8875 -103.1161 82° East 440 506 37,000  Level Fort Worth Center
09:34PM 31.9017 -102.9922 82° East 440 506 37,000  Level Fort Worth Center
09:35PM 31.9203 -102.8489 81° East 440 506 37,000  Level Fort Worth Center
09:36PM 31.9369 -102.7056 82° East 440 506 37,000  Level Fort Worth Center
09:37PM 31.9553 -102.5622 81° East 445 512 37,000  Level Fort Worth Center
09:38PM 31.9736 -102.4236 81° East 439 505 37,000  Level Fort Worth Center
09:39PM 31.9894 -102.2800 83° East 439 505 37,000  Level Fort Worth Center
09:40PM 32.0075 -102.1364 82° East 444 511 37,000  Level Fort Worth Center
09:41PM 32.0233 -101.9928 83° East 444 511 37,000  Level Fort Worth Center
09:42PM 32.0369 -101.8464 84° East 444 511 37,000  Level Fort Worth Center
09:43PM 32.0481 -101.7025 85° East 444 511 37,000  Level Fort Worth Center
09:44PM 32.0675 -101.5636 81° East 444 511 37,000  Level Fort Worth Center
09:45PM 32.0806 -101.4172 84° East 444 511 37,000  Level Fort Worth Center
09:46PM 32.0933 -101.2731 84° East 438 504 37,000  Level Fort Worth Center
09:47PM 32.1083 -101.1264 83° East 443 510 37,000  Level Fort Worth Center
09:48PM 32.1228 -100.9825 83° East 443 510 37,000  Level Fort Worth Center
09:49PM 32.1353 -100.8381 84° East 443 510 37,000  Level Fort Worth Center
09:50PM 32.1475 -100.6939 84° East 443 510 37,000  Level Fort Worth Center
09:51PM 32.1636 -100.5472 83° East 443 510 37,000  Level Fort Worth Center
09:52PM 32.1756 -100.4028 84° East 443 510 37,000  Level Fort Worth Center
09:53PM 32.1917 -100.2561 83° East 443 510 37,000  Level Fort Worth Center
09:54PM 32.2053 -100.1117 84° East 443 510 37,000  Level Fort Worth Center
09:55PM 32.2167 -99.9672 85° East 443 510 37,000  Level Fort Worth Center
09:56PM 32.2300 -99.8203 84° East 443 510 37,000  Level Fort Worth Center
09:57PM 32.2283 -99.6728 91° East 443 510 37,000  Level Fort Worth Center
09:58PM 32.2269 -99.5228 91° East 443 510 37,000  Level Fort Worth Center
09:59PM 32.2417 -99.3758 83° East 443 510 37,000  Level Fort Worth Center
10:00PM 32.2606 -99.2314 81° East 443 510 37,000 -660 Level Fort Worth Center
10:01PM 32.2794 -99.0892 81° East 443 510 35,700 -1,680 Descending Fort Worth Center
10:02PM 32.2981 -98.9422 81° East 443 510 33,700 -2,280 Descending Fort Worth Center
10:03PM 32.3164 -98.7950 82° East 443 510 31,200 -2,400 Descending Fort Worth Center
10:04PM 32.3367 -98.6550 80° East 441 507 29,000 -2,160 Descending Fort Worth Center
10:05PM 32.3525 -98.5153 82° East 436 502 26,900 -2,160 Descending Fort Worth Center
10:06PM 32.3703 -98.3800 81° East 430 495 24,700 -2,400 Descending Fort Worth Center
10:07PM 32.3861 -98.2303 83° East 417 480 22,200 -2,280 Descending Fort Worth Center
10:08PM 32.4014 -98.1000 82° East 404 465 20,200 -2,160 Descending Fort Worth Center
10:09PM 32.4167 -97.9744 82° East 394 453 17,900 -2,100 Descending Fort Worth Center
10:10PM 32.4297 -97.8492 83° East 388 447 16,000 -2,040 Descending Fort Worth Center
10:11PM 32.4467 -97.7311 80° East 372 428 13,900 -1,800 Descending Fort Worth Center
10:12PM 32.4825 -97.6228 69° East 354 407 12,500 -1,320 Descending Fort Worth Center
10:13PM 32.5203 -97.5169 67° East 349 402 11,300 -780 Descending Fort Worth Center
10:14PM 32.5558 -97.4108 68° East 349 402 11,000 -240 Descending Fort Worth Center
10:15PM 32.6000 -97.3500 49° Northeast 348 400 11,000  Level Dallas / Fort Worth TRACON
10:16PM 32.6667 -97.2667 46° Northeast 352 405 11,000  Level Dallas / Fort Worth TRACON
10:17PM 32.7167 -97.2000 48° Northeast 290 334 11,000 -120 Level Dallas / Fort Worth TRACON
10:18PM 32.8000 -97.1667 19° North 252 290 10,800 -960 Descending Dallas / Fort Worth TRACON
10:19PM 32.8667 -97.1667 360° North 251 289 9,000 -1,800 Descending Dallas / Fort Worth TRACON
10:20PM 32.9333 -97.1667 360° North 247 284 7,400 -1,920 Descending Dallas / Fort Worth TRACON
10:21PM 32.9833 -97.1667 360° North 247 284 5,600 -1,860 Descending Dallas / Fort Worth TRACON
10:21PM 33.0253 -97.1631 North 244 281 4,800 -1,380 Descending Fort Worth Center
10:22PM 33.0439 -97.1136 66° East 177 204 3,600 -1,140 Descending Fort Worth Center
10:23PM 33.0333 -97.0833 113° Southeast 182 209 3,100 -1,020 Descending Dallas / Fort Worth TRACON
10:24PM 33.0000 -97.0500 140° Southeast 138 159 2,100 -1,020 Descending Dallas / Fort Worth TRACON